sensor_id;sensor_type;location;lat;lon;timestamp;pressure;altitude;pressure_sealevel;temperature;humidity
81224;BME280;70698;44.402;18.522;2023-09-30T00:00:55;98094.00;;;12.11;77.88
81224;BME280;70698;44.402;18.522;2023-09-30T00:03:21;98097.66;;;12.01;79.06
81224;BME280;70698;44.402;18.522;2023-09-30T00:05:47;98096.38;;;11.97;79.29
81224;BME280;70698;44.402;18.522;2023-09-30T00:08:13;98098.34;;;12.03;78.67
81224;BME280;70698;44.402;18.522;2023-09-30T00:10:38;98094.41;;;11.99;78.75
81224;BME280;70698;44.402;18.522;2023-09-30T00:13:04;98093.69;;;12.14;78.64
81224;BME280;70698;44.402;18.522;2023-09-30T00:15:32;98091.06;;;12.14;78.45
81224;BME280;70698;44.402;18.522;2023-09-30T00:17:58;98083.63;;;12.17;78.34
81224;BME280;70698;44.402;18.522;2023-09-30T00:20:24;98074.16;;;12.00;78.69
81224;BME280;70698;44.402;18.522;2023-09-30T00:22:49;98081.03;;;12.09;78.65
81224;BME280;70698;44.402;18.522;2023-09-30T00:25:15;98083.78;;;12.24;77.61
81224;BME280;70698;44.402;18.522;2023-09-30T00:27:40;98084.72;;;12.31;77.41
81224;BME280;70698;44.402;18.522;2023-09-30T00:30:06;98073.09;;;12.25;77.60
81224;BME280;70698;44.402;18.522;2023-09-30T00:32:33;98090.56;;;12.18;77.87
81224;BME280;70698;44.402;18.522;2023-09-30T00:35:02;98066.56;;;12.05;78.16
81224;BME280;70698;44.402;18.522;2023-09-30T00:37:28;98090.72;;;12.17;77.88
81224;BME280;70698;44.402;18.522;2023-09-30T00:39:53;98083.94;;;12.22;77.66
81224;BME280;70698;44.402;18.522;2023-09-30T00:42:19;98093.84;;;12.12;78.34
81224;BME280;70698;44.402;18.522;2023-09-30T00:44:47;98094.91;;;11.95;79.03
81224;BME280;70698;44.402;18.522;2023-09-30T00:47:13;98088.13;;;11.92;78.99
81224;BME280;70698;44.402;18.522;2023-09-30T00:49:40;98087.66;;;11.89;79.79
81224;BME280;70698;44.402;18.522;2023-09-30T00:52:09;98092.75;;;11.82;80.12
81224;BME280;70698;44.402;18.522;2023-09-30T00:54:36;98090.16;;;11.74;80.51
81224;BME280;70698;44.402;18.522;2023-09-30T00:57:03;98096.53;;;11.96;79.79
81224;BME280;70698;44.402;18.522;2023-09-30T00:59:31;98087.31;;;12.00;79.74
81224;BME280;70698;44.402;18.522;2023-09-30T01:01:59;98091.75;;;11.99;80.15
81224;BME280;70698;44.402;18.522;2023-09-30T01:04:28;98087.31;;;11.92;79.93
81224;BME280;70698;44.402;18.522;2023-09-30T01:06:54;98085.16;;;12.03;78.71
81224;BME280;70698;44.402;18.522;2023-09-30T01:09:22;98094.72;;;11.96;79.31
81224;BME280;70698;44.402;18.522;2023-09-30T01:11:48;98082.38;;;11.97;78.94
81224;BME280;70698;44.402;18.522;2023-09-30T01:14:47;98096.66;;;12.11;78.08
81224;BME280;70698;44.402;18.522;2023-09-30T01:17:12;98086.66;;;11.98;78.81
81224;BME280;70698;44.402;18.522;2023-09-30T01:19:40;98100.81;;;11.81;79.85
81224;BME280;70698;44.402;18.522;2023-09-30T01:22:06;98092.09;;;11.64;80.53
81224;BME280;70698;44.402;18.522;2023-09-30T01:24:41;98101.81;;;11.55;80.92
81224;BME280;70698;44.402;18.522;2023-09-30T01:27:10;98084.69;;;11.51;81.32
81224;BME280;70698;44.402;18.522;2023-09-30T01:29:36;98098.34;;;11.63;81.15
81224;BME280;70698;44.402;18.522;2023-09-30T01:32:04;98084.72;;;11.59;80.76
81224;BME280;70698;44.402;18.522;2023-09-30T01:34:34;98103.28;;;11.58;80.54
81224;BME280;70698;44.402;18.522;2023-09-30T01:37:00;98096.88;;;11.52;81.00
81224;BME280;70698;44.402;18.522;2023-09-30T01:39:25;98099.84;;;11.57;80.58
81224;BME280;70698;44.402;18.522;2023-09-30T01:41:51;98099.50;;;11.52;81.64
81224;BME280;70698;44.402;18.522;2023-09-30T01:44:17;98093.41;;;11.28;81.44
81224;BME280;70698;44.402;18.522;2023-09-30T01:46:43;98100.50;;;11.43;81.46
81224;BME280;70698;44.402;18.522;2023-09-30T01:49:09;98100.00;;;11.64;80.49
81224;BME280;70698;44.402;18.522;2023-09-30T01:51:35;98103.31;;;11.50;81.20
81224;BME280;70698;44.402;18.522;2023-09-30T01:54:00;98088.66;;;11.47;81.41
81224;BME280;70698;44.402;18.522;2023-09-30T01:56:26;98083.38;;;11.47;80.96
81224;BME280;70698;44.402;18.522;2023-09-30T01:58:52;98090.63;;;11.61;80.13
81224;BME280;70698;44.402;18.522;2023-09-30T02:01:18;98083.06;;;11.58;79.92
81224;BME280;70698;44.402;18.522;2023-09-30T02:03:43;98077.63;;;11.60;79.52
81224;BME280;70698;44.402;18.522;2023-09-30T02:06:09;98089.31;;;11.57;79.55
81224;BME280;70698;44.402;18.522;2023-09-30T02:08:35;98084.53;;;11.61;79.37
81224;BME280;70698;44.402;18.522;2023-09-30T02:11:02;98084.88;;;11.50;80.17
81224;BME280;70698;44.402;18.522;2023-09-30T02:13:32;98082.41;;;11.40;80.77
81224;BME280;70698;44.402;18.522;2023-09-30T02:15:59;98082.75;;;11.45;80.13
81224;BME280;70698;44.402;18.522;2023-09-30T02:18:25;98078.78;;;11.41;80.49
81224;BME280;70698;44.402;18.522;2023-09-30T02:20:51;98082.25;;;11.34;81.35
81224;BME280;70698;44.402;18.522;2023-09-30T02:23:18;98088.00;;;11.45;80.26
81224;BME280;70698;44.402;18.522;2023-09-30T02:25:44;98085.06;;;11.40;80.40
81224;BME280;70698;44.402;18.522;2023-09-30T02:28:10;98088.66;;;11.39;80.14
81224;BME280;70698;44.402;18.522;2023-09-30T02:30:36;98088.31;;;11.42;80.32
81224;BME280;70698;44.402;18.522;2023-09-30T02:33:02;98094.75;;;11.40;80.68
81224;BME280;70698;44.402;18.522;2023-09-30T02:35:29;98087.16;;;11.53;79.89
81224;BME280;70698;44.402;18.522;2023-09-30T02:37:55;98060.66;;;11.62;78.73
81224;BME280;70698;44.402;18.522;2023-09-30T02:40:21;98066.28;;;11.76;78.48
81224;BME280;70698;44.402;18.522;2023-09-30T02:42:50;98089.97;;;11.84;78.60
81224;BME280;70698;44.402;18.522;2023-09-30T02:45:15;98072.56;;;11.75;78.38
81224;BME280;70698;44.402;18.522;2023-09-30T02:47:44;98068.91;;;11.76;78.21
81224;BME280;70698;44.402;18.522;2023-09-30T02:50:10;98076.81;;;11.84;78.54
81224;BME280;70698;44.402;18.522;2023-09-30T02:52:40;98085.38;;;11.78;78.88
81224;BME280;70698;44.402;18.522;2023-09-30T02:55:12;98073.84;;;11.46;79.17
81224;BME280;70698;44.402;18.522;2023-09-30T02:57:37;98080.59;;;11.49;79.58
81224;BME280;70698;44.402;18.522;2023-09-30T03:00:04;98083.72;;;11.28;81.17
81224;BME280;70698;44.402;18.522;2023-09-30T03:02:50;98089.94;;;10.95;81.73
81224;BME280;70698;44.402;18.522;2023-09-30T03:05:17;98090.53;;;10.72;82.49
81224;BME280;70698;44.402;18.522;2023-09-30T03:07:42;98090.66;;;10.63;83.42
81224;BME280;70698;44.402;18.522;2023-09-30T03:10:09;98086.16;;;10.47;83.51
81224;BME280;70698;44.402;18.522;2023-09-30T03:12:35;98082.06;;;10.45;83.90
81224;BME280;70698;44.402;18.522;2023-09-30T03:15:01;98071.22;;;10.40;83.63
81224;BME280;70698;44.402;18.522;2023-09-30T03:17:31;98083.88;;;10.44;84.37
81224;BME280;70698;44.402;18.522;2023-09-30T03:19:58;98070.75;;;10.52;83.92
81224;BME280;70698;44.402;18.522;2023-09-30T03:22:25;98074.34;;;10.51;84.75
81224;BME280;70698;44.402;18.522;2023-09-30T03:24:55;98083.66;;;10.88;84.27
81224;BME280;70698;44.402;18.522;2023-09-30T03:27:22;98082.38;;;11.00;82.57
81224;BME280;70698;44.402;18.522;2023-09-30T03:29:48;98061.31;;;10.84;83.40
81224;BME280;70698;44.402;18.522;2023-09-30T03:32:14;98067.25;;;10.86;83.05
81224;BME280;70698;44.402;18.522;2023-09-30T03:34:40;98070.41;;;11.05;82.39
81224;BME280;70698;44.402;18.522;2023-09-30T03:37:10;98075.00;;;11.28;80.97
81224;BME280;70698;44.402;18.522;2023-09-30T03:39:35;98081.75;;;11.30;80.99
81224;BME280;70698;44.402;18.522;2023-09-30T03:42:01;98079.78;;;11.40;80.57
81224;BME280;70698;44.402;18.522;2023-09-30T03:44:28;98087.19;;;11.45;79.90
81224;BME280;70698;44.402;18.522;2023-09-30T03:46:54;98086.34;;;11.20;81.94
81224;BME280;70698;44.402;18.522;2023-09-30T03:49:20;98088.28;;;11.02;81.99
81224;BME280;70698;44.402;18.522;2023-09-30T03:51:46;98074.31;;;10.93;81.98
81224;BME280;70698;44.402;18.522;2023-09-30T03:54:12;98083.34;;;10.99;82.13
81224;BME280;70698;44.402;18.522;2023-09-30T03:56:38;98086.66;;;11.09;81.48
81224;BME280;70698;44.402;18.522;2023-09-30T03:59:07;98082.91;;;11.19;81.70
81224;BME280;70698;44.402;18.522;2023-09-30T04:01:34;98075.66;;;11.13;81.40
81224;BME280;70698;44.402;18.522;2023-09-30T04:04:00;98082.72;;;11.21;81.29
81224;BME280;70698;44.402;18.522;2023-09-30T04:06:26;98086.69;;;11.25;81.71
81224;BME280;70698;44.402;18.522;2023-09-30T04:08:51;98086.84;;;11.15;82.07
81224;BME280;70698;44.402;18.522;2023-09-30T04:11:17;98082.53;;;10.98;83.46
81224;BME280;70698;44.402;18.522;2023-09-30T04:13:44;98076.78;;;10.95;83.29
81224;BME280;70698;44.402;18.522;2023-09-30T04:16:10;98088.63;;;10.99;83.50
81224;BME280;70698;44.402;18.522;2023-09-30T04:18:36;98071.16;;;10.82;82.76
81224;BME280;70698;44.402;18.522;2023-09-30T04:21:02;98082.47;;;10.74;83.00
81224;BME280;70698;44.402;18.522;2023-09-30T04:23:27;98076.69;;;10.54;83.71
81224;BME280;70698;44.402;18.522;2023-09-30T04:25:53;98086.16;;;10.47;83.35
81224;BME280;70698;44.402;18.522;2023-09-30T04:28:19;98078.19;;;10.23;83.74
81224;BME280;70698;44.402;18.522;2023-09-30T04:30:49;98095.75;;;10.22;84.53
81224;BME280;70698;44.402;18.522;2023-09-30T04:33:16;98091.25;;;10.15;85.29
81224;BME280;70698;44.402;18.522;2023-09-30T04:35:43;98096.22;;;10.18;85.04
81224;BME280;70698;44.402;18.522;2023-09-30T04:38:10;98094.97;;;10.04;84.86
81224;BME280;70698;44.402;18.522;2023-09-30T04:40:36;98090.66;;;9.95;85.44
81224;BME280;70698;44.402;18.522;2023-09-30T04:43:02;98101.34;;;10.02;85.84
81224;BME280;70698;44.402;18.522;2023-09-30T04:45:28;98115.94;;;9.96;86.23
81224;BME280;70698;44.402;18.522;2023-09-30T04:47:54;98115.16;;;10.04;85.90
81224;BME280;70698;44.402;18.522;2023-09-30T04:50:23;98109.53;;;9.99;86.31
81224;BME280;70698;44.402;18.522;2023-09-30T04:52:52;98112.50;;;9.96;86.13
81224;BME280;70698;44.402;18.522;2023-09-30T04:55:19;98108.06;;;9.96;86.09
81224;BME280;70698;44.402;18.522;2023-09-30T04:57:45;98119.09;;;10.00;86.64
81224;BME280;70698;44.402;18.522;2023-09-30T05:00:17;98121.75;;;10.08;87.03
81224;BME280;70698;44.402;18.522;2023-09-30T05:02:44;98126.16;;;10.25;86.11
81224;BME280;70698;44.402;18.522;2023-09-30T05:05:10;98135.38;;;10.37;85.38
81224;BME280;70698;44.402;18.522;2023-09-30T05:07:36;98133.44;;;10.39;85.90
81224;BME280;70698;44.402;18.522;2023-09-30T05:10:05;98138.97;;;10.28;85.46
81224;BME280;70698;44.402;18.522;2023-09-30T05:12:35;98128.97;;;10.06;84.83
81224;BME280;70698;44.402;18.522;2023-09-30T05:15:01;98143.31;;;9.93;85.71
81224;BME280;70698;44.402;18.522;2023-09-30T05:17:27;98141.16;;;9.89;85.89
81224;BME280;70698;44.402;18.522;2023-09-30T05:19:56;98134.03;;;9.81;85.98
81224;BME280;70698;44.402;18.522;2023-09-30T05:22:22;98145.38;;;9.82;85.81
81224;BME280;70698;44.402;18.522;2023-09-30T05:24:52;98138.16;;;9.84;85.83
81224;BME280;70698;44.402;18.522;2023-09-30T05:27:19;98148.25;;;9.97;86.43
81224;BME280;70698;44.402;18.522;2023-09-30T05:29:45;98141.78;;;10.09;87.06
81224;BME280;70698;44.402;18.522;2023-09-30T05:32:10;98146.41;;;10.15;85.27
81224;BME280;70698;44.402;18.522;2023-09-30T05:34:36;98148.22;;;10.14;86.24
81224;BME280;70698;44.402;18.522;2023-09-30T05:37:04;98136.44;;;10.18;86.38
81224;BME280;70698;44.402;18.522;2023-09-30T05:39:30;98145.91;;;10.37;85.32
81224;BME280;70698;44.402;18.522;2023-09-30T05:41:57;98144.88;;;10.56;85.64
81224;BME280;70698;44.402;18.522;2023-09-30T05:44:23;98143.91;;;10.65;84.96
81224;BME280;70698;44.402;18.522;2023-09-30T05:46:48;98147.25;;;10.75;84.26
81224;BME280;70698;44.402;18.522;2023-09-30T05:49:15;98146.13;;;10.86;83.95
81224;BME280;70698;44.402;18.522;2023-09-30T05:51:41;98155.06;;;11.01;83.08
81224;BME280;70698;44.402;18.522;2023-09-30T05:54:07;98163.59;;;11.11;84.13
81224;BME280;70698;44.402;18.522;2023-09-30T05:56:38;98168.22;;;11.17;84.27
81224;BME280;70698;44.402;18.522;2023-09-30T05:59:09;98169.38;;;11.22;83.91
81224;BME280;70698;44.402;18.522;2023-09-30T06:01:34;98165.81;;;11.40;83.74
81224;BME280;70698;44.402;18.522;2023-09-30T06:04:04;98145.06;;;11.37;82.88
81224;BME280;70698;44.402;18.522;2023-09-30T06:06:30;98146.75;;;11.54;82.82
81224;BME280;70698;44.402;18.522;2023-09-30T06:08:56;98163.69;;;11.59;83.35
81224;BME280;70698;44.402;18.522;2023-09-30T06:11:26;98159.06;;;11.61;83.51
81224;BME280;70698;44.402;18.522;2023-09-30T06:13:55;98158.78;;;11.89;82.36
81224;BME280;70698;44.402;18.522;2023-09-30T06:16:21;98151.81;;;12.12;80.57
81224;BME280;70698;44.402;18.522;2023-09-30T06:18:46;98164.63;;;12.31;80.08
81224;BME280;70698;44.402;18.522;2023-09-30T06:21:13;98154.88;;;12.48;79.18
81224;BME280;70698;44.402;18.522;2023-09-30T06:23:40;98171.47;;;12.65;79.12
81224;BME280;70698;44.402;18.522;2023-09-30T06:26:06;98159.91;;;12.66;80.24
81224;BME280;70698;44.402;18.522;2023-09-30T06:28:32;98168.44;;;12.76;79.57
81224;BME280;70698;44.402;18.522;2023-09-30T06:30:59;98174.69;;;12.83;79.91
81224;BME280;70698;44.402;18.522;2023-09-30T06:33:25;98166.72;;;12.91;80.49
81224;BME280;70698;44.402;18.522;2023-09-30T06:35:50;98169.13;;;13.09;78.82
81224;BME280;70698;44.402;18.522;2023-09-30T06:38:18;98172.34;;;13.27;78.25
81224;BME280;70698;44.402;18.522;2023-09-30T06:40:44;98169.31;;;13.38;78.11
81224;BME280;70698;44.402;18.522;2023-09-30T06:43:15;98170.84;;;13.55;77.54
81224;BME280;70698;44.402;18.522;2023-09-30T06:45:44;98167.44;;;13.69;76.95
81224;BME280;70698;44.402;18.522;2023-09-30T06:48:12;98175.31;;;13.77;78.45
81224;BME280;70698;44.402;18.522;2023-09-30T06:50:45;98173.06;;;13.89;77.39
81224;BME280;70698;44.402;18.522;2023-09-30T06:53:14;98172.56;;;14.08;76.37
81224;BME280;70698;44.402;18.522;2023-09-30T06:55:41;98173.47;;;14.15;75.53
81224;BME280;70698;44.402;18.522;2023-09-30T06:58:07;98177.94;;;14.38;74.83
81224;BME280;70698;44.402;18.522;2023-09-30T07:00:34;98176.66;;;14.48;74.88
81224;BME280;70698;44.402;18.522;2023-09-30T07:03:00;98168.25;;;14.45;77.20
81224;BME280;70698;44.402;18.522;2023-09-30T07:05:27;98172.25;;;14.55;76.00
81224;BME280;70698;44.402;18.522;2023-09-30T07:07:53;98180.13;;;14.78;75.71
81224;BME280;70698;44.402;18.522;2023-09-30T07:10:19;98175.91;;;14.98;73.91
81224;BME280;70698;44.402;18.522;2023-09-30T07:12:45;98178.97;;;15.17;73.23
81224;BME280;70698;44.402;18.522;2023-09-30T07:15:10;98182.69;;;15.22;73.00
81224;BME280;70698;44.402;18.522;2023-09-30T07:17:36;98188.22;;;15.42;72.39
81224;BME280;70698;44.402;18.522;2023-09-30T07:20:03;98180.00;;;15.52;72.30
81224;BME280;70698;44.402;18.522;2023-09-30T07:22:30;98170.34;;;15.65;72.01
81224;BME280;70698;44.402;18.522;2023-09-30T07:24:56;98191.28;;;15.81;71.58
81224;BME280;70698;44.402;18.522;2023-09-30T07:27:23;98183.84;;;15.91;72.17
81224;BME280;70698;44.402;18.522;2023-09-30T07:29:49;98196.00;;;16.07;74.89
81224;BME280;70698;44.402;18.522;2023-09-30T07:32:15;98196.63;;;16.09;73.15
81224;BME280;70698;44.402;18.522;2023-09-30T07:34:40;98193.72;;;16.04;72.86
81224;BME280;70698;44.402;18.522;2023-09-30T07:37:06;98204.22;;;16.12;71.73
81224;BME280;70698;44.402;18.522;2023-09-30T07:39:31;98211.56;;;16.38;72.35
81224;BME280;70698;44.402;18.522;2023-09-30T07:41:57;98194.28;;;16.49;71.49
81224;BME280;70698;44.402;18.522;2023-09-30T07:44:23;98199.94;;;16.67;71.30
81224;BME280;70698;44.402;18.522;2023-09-30T07:46:48;98198.53;;;16.71;71.06
81224;BME280;70698;44.402;18.522;2023-09-30T07:49:14;98213.59;;;16.98;69.95
81224;BME280;70698;44.402;18.522;2023-09-30T07:51:40;98220.53;;;16.99;70.13
81224;BME280;70698;44.402;18.522;2023-09-30T07:54:06;98219.19;;;17.16;69.98
81224;BME280;70698;44.402;18.522;2023-09-30T07:56:31;98208.63;;;17.36;71.08
81224;BME280;70698;44.402;18.522;2023-09-30T07:58:57;98207.19;;;17.27;68.77
81224;BME280;70698;44.402;18.522;2023-09-30T08:01:23;98209.03;;;17.27;69.77
81224;BME280;70698;44.402;18.522;2023-09-30T08:03:48;98218.03;;;17.39;69.25
81224;BME280;70698;44.402;18.522;2023-09-30T08:06:14;98209.78;;;17.61;69.04
81224;BME280;70698;44.402;18.522;2023-09-30T08:08:40;98212.66;;;17.80;66.94
81224;BME280;70698;44.402;18.522;2023-09-30T08:11:06;98219.41;;;17.89;66.81
81224;BME280;70698;44.402;18.522;2023-09-30T08:13:32;98218.63;;;18.15;67.23
81224;BME280;70698;44.402;18.522;2023-09-30T08:16:00;98214.75;;;18.17;64.67
81224;BME280;70698;44.402;18.522;2023-09-30T08:18:26;98215.78;;;18.42;65.72
81224;BME280;70698;44.402;18.522;2023-09-30T08:20:51;98221.94;;;18.56;63.86
81224;BME280;70698;44.402;18.522;2023-09-30T08:23:17;98218.59;;;18.80;63.19
81224;BME280;70698;44.402;18.522;2023-09-30T08:25:43;98221.84;;;19.02;62.62
81224;BME280;70698;44.402;18.522;2023-09-30T08:28:09;98210.31;;;19.15;63.57
81224;BME280;70698;44.402;18.522;2023-09-30T08:30:36;98216.84;;;19.19;61.64
81224;BME280;70698;44.402;18.522;2023-09-30T08:33:02;98211.59;;;19.44;61.18
81224;BME280;70698;44.402;18.522;2023-09-30T08:35:38;98215.47;;;19.61;60.26
81224;BME280;70698;44.402;18.522;2023-09-30T08:38:04;98213.09;;;19.77;61.36
81224;BME280;70698;44.402;18.522;2023-09-30T08:40:30;98197.44;;;19.88;60.65
81224;BME280;70698;44.402;18.522;2023-09-30T08:42:55;98208.19;;;20.06;59.32
81224;BME280;70698;44.402;18.522;2023-09-30T08:45:21;98204.22;;;20.15;58.74
81224;BME280;70698;44.402;18.522;2023-09-30T08:47:47;98198.44;;;20.43;58.62
81224;BME280;70698;44.402;18.522;2023-09-30T08:50:13;98195.06;;;20.54;56.11
81224;BME280;70698;44.402;18.522;2023-09-30T08:52:43;98195.88;;;20.54;56.24
81224;BME280;70698;44.402;18.522;2023-09-30T08:55:12;98195.44;;;20.57;55.63
81224;BME280;70698;44.402;18.522;2023-09-30T08:57:41;98184.06;;;20.87;55.64
81224;BME280;70698;44.402;18.522;2023-09-30T09:00:11;98180.41;;;20.99;53.54
81224;BME280;70698;44.402;18.522;2023-09-30T09:02:42;98181.97;;;21.25;51.64
81224;BME280;70698;44.402;18.522;2023-09-30T09:05:08;98185.91;;;21.41;49.18
81224;BME280;70698;44.402;18.522;2023-09-30T09:07:35;98170.63;;;21.30;49.82
81224;BME280;70698;44.402;18.522;2023-09-30T09:12:33;98166.22;;;21.95;50.04
81224;BME280;70698;44.402;18.522;2023-09-30T09:14:59;98163.91;;;22.10;47.79
81224;BME280;70698;44.402;18.522;2023-09-30T09:17:40;98162.63;;;22.13;46.68
81224;BME280;70698;44.402;18.522;2023-09-30T09:20:07;98166.81;;;22.20;49.28
81224;BME280;70698;44.402;18.522;2023-09-30T09:22:42;98150.38;;;22.17;46.17
81224;BME280;70698;44.402;18.522;2023-09-30T09:25:08;98158.34;;;22.35;48.57
81224;BME280;70698;44.402;18.522;2023-09-30T09:27:34;98157.28;;;22.48;49.45
81224;BME280;70698;44.402;18.522;2023-09-30T09:33:03;98158.53;;;22.22;48.92
81224;BME280;70698;44.402;18.522;2023-09-30T09:35:31;98167.31;;;22.76;49.78
81224;BME280;70698;44.402;18.522;2023-09-30T09:38:03;98168.91;;;23.00;50.30
81224;BME280;70698;44.402;18.522;2023-09-30T09:40:37;98168.91;;;23.00;51.38
81224;BME280;70698;44.402;18.522;2023-09-30T09:43:06;98151.72;;;23.12;52.51
81224;BME280;70698;44.402;18.522;2023-09-30T09:45:34;98159.19;;;23.10;52.18
81224;BME280;70698;44.402;18.522;2023-09-30T09:48:00;98156.44;;;23.34;50.85
81224;BME280;70698;44.402;18.522;2023-09-30T09:50:26;98161.06;;;23.50;51.92
81224;BME280;70698;44.402;18.522;2023-09-30T09:52:53;98155.53;;;23.85;47.70
81224;BME280;70698;44.402;18.522;2023-09-30T09:55:21;98158.75;;;23.87;51.17
81224;BME280;70698;44.402;18.522;2023-09-30T09:57:50;98149.94;;;23.58;50.86
81224;BME280;70698;44.402;18.522;2023-09-30T10:00:24;98151.28;;;23.89;49.95
81224;BME280;70698;44.402;18.522;2023-09-30T10:02:50;98150.78;;;23.92;50.32
81224;BME280;70698;44.402;18.522;2023-09-30T10:05:19;98144.38;;;24.26;49.21
81224;BME280;70698;44.402;18.522;2023-09-30T10:07:57;98141.22;;;24.68;46.92
81224;BME280;70698;44.402;18.522;2023-09-30T10:10:25;98148.06;;;25.41;44.63
81224;BME280;70698;44.402;18.522;2023-09-30T10:12:51;98156.69;;;24.77;47.63
81224;BME280;70698;44.402;18.522;2023-09-30T10:18:11;98140.13;;;24.85;48.00
81224;BME280;70698;44.402;18.522;2023-09-30T10:20:39;98147.50;;;25.39;43.64
81224;BME280;70698;44.402;18.522;2023-09-30T10:23:25;98144.84;;;25.65;43.64
81224;BME280;70698;44.402;18.522;2023-09-30T10:25:54;98148.06;;;25.41;45.87
81224;BME280;70698;44.402;18.522;2023-09-30T10:28:42;98141.97;;;25.23;44.55
81224;BME280;70698;44.402;18.522;2023-09-30T10:31:21;98148.09;;;25.46;45.32
81224;BME280;70698;44.402;18.522;2023-09-30T10:36:36;98148.00;;;25.36;44.81
81224;BME280;70698;44.402;18.522;2023-09-30T10:39:03;98137.44;;;25.29;42.52
81224;BME280;70698;44.402;18.522;2023-09-30T10:46:51;98139.09;;;25.30;40.46
81224;BME280;70698;44.402;18.522;2023-09-30T10:49:30;98131.91;;;25.41;40.11
81224;BME280;70698;44.402;18.522;2023-09-30T10:51:58;98125.44;;;25.90;40.81
81224;BME280;70698;44.402;18.522;2023-09-30T10:54:28;98126.09;;;26.07;39.65
81224;BME280;70698;44.402;18.522;2023-09-30T10:56:54;98114.25;;;26.08;38.15
81224;BME280;70698;44.402;18.522;2023-09-30T10:59:24;98123.13;;;26.04;39.67
81224;BME280;70698;44.402;18.522;2023-09-30T11:01:51;98102.72;;;25.81;39.00
81224;BME280;70698;44.402;18.522;2023-09-30T11:04:17;98113.94;;;25.46;40.16
81224;BME280;70698;44.402;18.522;2023-09-30T11:06:44;98111.19;;;25.63;38.71
81224;BME280;70698;44.402;18.522;2023-09-30T11:09:15;98105.69;;;26.17;37.59
81224;BME280;70698;44.402;18.522;2023-09-30T11:14:28;98099.44;;;27.05;35.43
81224;BME280;70698;44.402;18.522;2023-09-30T11:16:56;98099.88;;;28.05;33.04
81224;BME280;70698;44.402;18.522;2023-09-30T11:19:22;98091.19;;;27.47;35.09
81224;BME280;70698;44.402;18.522;2023-09-30T11:21:54;98082.22;;;27.16;33.83
81224;BME280;70698;44.402;18.522;2023-09-30T11:24:21;98091.53;;;26.83;35.61
81224;BME280;70698;44.402;18.522;2023-09-30T11:26:47;98091.94;;;26.50;37.77
81224;BME280;70698;44.402;18.522;2023-09-30T11:29:13;98082.63;;;26.31;35.85
81224;BME280;70698;44.402;18.522;2023-09-30T11:31:46;98081.00;;;27.64;34.26
81224;BME280;70698;44.402;18.522;2023-09-30T11:34:15;98080.44;;;27.62;34.72
81224;BME280;70698;44.402;18.522;2023-09-30T11:36:50;98082.88;;;27.59;36.34
81224;BME280;70698;44.402;18.522;2023-09-30T11:39:23;98068.84;;;28.17;35.81
81224;BME280;70698;44.402;18.522;2023-09-30T11:41:49;98077.63;;;28.63;34.45
81224;BME280;70698;44.402;18.522;2023-09-30T11:44:15;98075.56;;;28.05;34.42
81224;BME280;70698;44.402;18.522;2023-09-30T11:51:49;98067.50;;;27.59;32.20
81224;BME280;70698;44.402;18.522;2023-09-30T11:54:16;98075.00;;;27.47;31.71
81224;BME280;70698;44.402;18.522;2023-09-30T11:56:41;98066.91;;;27.42;31.53
81224;BME280;70698;44.402;18.522;2023-09-30T11:59:07;98071.78;;;27.65;35.09
81224;BME280;70698;44.402;18.522;2023-09-30T12:01:39;98067.22;;;27.76;33.00
81224;BME280;70698;44.402;18.522;2023-09-30T12:04:05;98061.81;;;27.76;32.95
81224;BME280;70698;44.402;18.522;2023-09-30T12:06:32;98057.75;;;27.53;32.72
81224;BME280;70698;44.402;18.522;2023-09-30T12:08:59;98064.81;;;27.74;33.74
81224;BME280;70698;44.402;18.522;2023-09-30T12:11:25;98054.78;;;27.85;33.74
81224;BME280;70698;44.402;18.522;2023-09-30T12:13:51;98062.63;;;27.66;34.23
81224;BME280;70698;44.402;18.522;2023-09-30T12:16:17;98070.41;;;27.48;33.11
81224;BME280;70698;44.402;18.522;2023-09-30T12:18:43;98058.81;;;28.03;34.53
81224;BME280;70698;44.402;18.522;2023-09-30T12:21:11;98062.13;;;28.89;32.82
81224;BME280;70698;44.402;18.522;2023-09-30T12:23:39;98065.28;;;28.32;32.17
81224;BME280;70698;44.402;18.522;2023-09-30T12:26:05;98063.22;;;26.86;32.99
81224;BME280;70698;44.402;18.522;2023-09-30T12:28:34;98062.94;;;26.82;36.13
81224;BME280;70698;44.402;18.522;2023-09-30T12:31:00;98053.66;;;28.27;32.11
81224;BME280;70698;44.402;18.522;2023-09-30T12:33:33;98041.63;;;28.78;29.94
81224;BME280;70698;44.402;18.522;2023-09-30T12:35:59;98050.41;;;28.30;31.19
81224;BME280;70698;44.402;18.522;2023-09-30T12:38:25;98041.00;;;29.40;29.50
81224;BME280;70698;44.402;18.522;2023-09-30T12:40:52;98029.63;;;29.77;29.00
81224;BME280;70698;44.402;18.522;2023-09-30T12:43:19;98041.94;;;30.22;29.55
81224;BME280;70698;44.402;18.522;2023-09-30T12:45:45;98033.97;;;30.78;26.57
81224;BME280;70698;44.402;18.522;2023-09-30T12:48:12;98031.53;;;30.58;25.86
81224;BME280;70698;44.402;18.522;2023-09-30T12:50:38;98021.78;;;30.05;26.79
81224;BME280;70698;44.402;18.522;2023-09-30T12:53:04;98029.28;;;30.84;26.69
81224;BME280;70698;44.402;18.522;2023-09-30T12:55:30;98025.41;;;31.33;26.09
81224;BME280;70698;44.402;18.522;2023-09-30T12:57:56;98029.47;;;30.45;25.41
81224;BME280;70698;44.402;18.522;2023-09-30T13:00:21;98020.59;;;30.16;25.09
81224;BME280;70698;44.402;18.522;2023-09-30T13:02:47;98029.00;;;31.28;24.74
81224;BME280;70698;44.402;18.522;2023-09-30T13:05:14;98017.16;;;31.19;23.67
81224;BME280;70698;44.402;18.522;2023-09-30T13:07:42;98024.22;;;31.57;24.85
81224;BME280;70698;44.402;18.522;2023-09-30T13:10:08;98013.66;;;30.76;25.14
81224;BME280;70698;44.402;18.522;2023-09-30T13:12:34;98019.78;;;30.87;25.48
81224;BME280;70698;44.402;18.522;2023-09-30T13:15:00;98014.84;;;31.12;25.42